Latest Weather Observations for Mount Read

IDT60801

Issued at 8:03 pm EDT Friday 30 January 2015 (issued every 30 minutes, with the page automatically refreshed every 10 minutes)

About weather observations | Map of weather stations | Latest weather observations for TAS | Other Formats
Station Details ID: 097085 Name: MOUNT READ Lat: -41.84 Lon: 145.54 Height: 1119.5 m
Data from the previous 72 hours. | See also: Recent months at Mount Read
Date/Time
EDT
Temp
°C
App
Temp
°C
Dew
Point
Rel
Hum
%
Delta-T
°C
Wind Press
QNH
hPa
Press
MSL
hPa
Rain
since 9 am
mm
Dir
 
Spd
km/h
Gust
km/h
Spd
kts
Gust
kts
30/08:00pm 9.2 1.9 4.6 73 2.2 SSE 32 43 17 23 1014.0 1012.1 0.0
30/07:30pm 9.7 1.8 4.3 69 2.6 SSE 35 46 19 25 1014.1 1012.3 0.0
30/07:00pm 10.4 3.8 4.3 66 2.9 SSE 28 37 15 20 1014.3 1012.5 0.0
30/06:30pm 11.6 5.3 3.6 58 3.8 SE 26 37 14 20 1014.3 1012.5 0.0
30/06:00pm 11.3 5.9 4.3 62 3.4 SSE 22 35 12 19 1014.7 1012.8 0.0
30/05:30pm 11.7 5.7 5.1 64 3.2 SSE 26 39 14 21 1014.8 1012.9 0.0
30/05:00pm 11.9 6.3 5.5 65 3.2 SSE 24 35 13 19 1015.0 1013.2 0.0
30/04:30pm 12.2 6.2 5.4 63 3.4 SSE 26 33 14 18 1015.2 1013.4 0.0
30/04:00pm 12.2 6.5 4.9 61 3.6 SSE 24 32 13 17 1015.4 1013.6 0.0
30/03:30pm 13.0 7.8 5.4 60 3.8 SSE 22 35 12 19 1015.8 1014.0 0.0
30/03:00pm 14.1 9.3 5.5 56 4.3 SE 20 30 11 16 1016.0 1014.2 0.0
30/02:30pm 12.6 7.4 5.3 61 3.6 SSE 22 33 12 18 1016.1 1014.3 0.0
30/02:00pm 11.2 5.5 5.1 66 3.0 SSE 24 39 13 21 1016.2 1014.4 0.0
30/01:30pm 11.0 5.8 5.7 70 2.6 SSE 22 33 12 18 1016.3 1014.5 0.0
30/01:00pm 9.6 4.2 4.6 71 2.4 S 22 30 12 16 1016.6 1014.8 0.0
30/12:30pm 8.9 2.4 4.7 75 2.0 SSE 28 39 15 21 1017.0 1015.2 0.0
30/12:00pm 8.9 2.4 4.7 75 2.0 SE 28 37 15 20 1016.9 1015.1 0.0
30/11:30am 7.8 0.3 4.7 81 1.5 SE 33 46 18 25 1016.9 1015.1 0.0
30/11:00am 7.1 -1.1 4.8 85 1.1 SSE 37 46 20 25 1016.9 1015.1 0.0
30/10:30am 6.2 -2.8 4.5 89 0.8 SSE 41 48 22 26 1016.9 1015.1 0.0
30/10:00am 6.0 -3.0 4.3 89 0.8 SSE 41 50 22 27 1016.8 1015.0 0.0
30/09:30am 5.7 -1.8 4.2 90 0.7 SSE 33 44 18 24 1017.2 1015.5 0.0
30/09:00am 5.3 -2.1 4.0 91 0.6 SE 32 43 17 23 1017.3 1015.6 0.0
30/08:30am 5.2 -2.8 3.7 90 0.7 SE 35 46 19 25 1017.0 1015.2 0.0
30/08:10am 5.1 -1.6 3.4 89 0.8 SE 28 46 15 25 1017.1 1015.3 0.0
30/08:00am 4.9 -1.8 3.4 90 0.7 SE 28 44 15 24 1017.1 1015.3 0.0
30/07:30am 4.5 -4.0 3.0 90 0.7 SE 37 48 20 26 1016.8 1015.0 0.0
30/07:00am 4.0 -3.8 2.7 91 0.6 SE 33 46 18 25 1016.9 1015.1 0.0
30/06:30am 3.8 -3.5 2.3 90 0.6 SE 30 48 16 26 1017.1 1015.3 0.0
30/06:00am 4.1 -4.3 1.8 85 1.0 SE 35 48 19 26 1017.0 1015.2 0.0
30/05:42am 3.8 -3.6 1.8 87 0.8 SSE 30 50 16 27 1017.0 1015.2 0.0
30/05:30am 3.7 -2.9 1.9 88 0.8 SE 26 41 14 22 1017.2 1015.5 0.0
30/05:13am 3.7 -3.3 2.1 89 0.7 SE 28 46 15 25 1017.2 1015.5 0.0
30/05:00am 3.7 -5.0 2.1 89 0.7 ESE 37 52 20 28 1017.0 1015.2 0.0
30/04:46am 3.5 -4.1 2.6 94 0.4 ESE 32 52 17 28 1016.9 1015.1 0.0
30/04:30am 3.5 -3.4 2.8 95 0.3 SE 28 43 15 23 1017.2 1015.5 0.0
30/04:00am 3.6 -2.9 2.9 95 0.3 SE 26 35 14 19 1017.8 1016.0 0.0
30/03:30am 4.0 -3.3 2.4 89 0.7 ESE 30 43 16 23 1018.1 1016.4 0.0
30/03:10am 4.0 -3.9 2.2 88 0.8 ESE 33 54 18 29 1017.9 1016.1 0.0
30/03:00am 3.9 -4.4 2.4 90 0.6 ESE 35 43 19 23 1018.2 1016.5 0.0
30/02:30am 4.0 -3.3 2.2 88 0.8 ESE 30 41 16 22 1018.9 1017.2 0.0
30/02:00am 4.1 -6.3 2.0 86 0.9 ESE 46 57 25 31 1018.9 1017.2 0.0
30/01:30am 3.9 -6.0 1.6 85 1.0 ESE 43 54 23 29 1019.1 1017.4 0.0
30/01:00am 3.7 -5.5 1.3 84 1.0 ESE 39 50 21 27 1019.5 1017.7 0.0
30/12:30am 3.8 -4.1 1.2 83 1.1 ESE 32 44 17 24 1019.8 1018.1 0.0
30/12:00am 3.8 -4.6 1.5 85 1.0 ESE 35 43 19 23 1019.9 1018.2 0.0
 
Date/Time
EDT
Temp
°C
App
Temp
°C
Dew
Point
Rel
Hum
%
Delta-T
°C
Wind Press
QNH
hPa
Press
MSL
hPa
Rain
since 9 am
mm
Dir
 
Spd
km/h
Gust
km/h
Spd
kts
Gust
kts
29/11:30pm 4.1 -3.7 1.8 85 1.0 ESE 32 43 17 23 1020.0 1018.3 0.0
29/11:00pm 4.6 -2.8 2.1 84 1.1 ESE 30 37 16 20 1020.2 1018.5 0.0
29/10:30pm 5.1 -1.7 3.0 86 0.9 ESE 28 37 15 20 1020.8 1019.1 0.0
29/10:00pm 6.0 -0.1 3.0 81 1.3 SE 24 35 13 19 1020.7 1019.0 0.0
29/09:30pm 6.6 0.4 2.3 74 1.9 ESE 24 32 13 17 1020.8 1019.1 0.0
29/09:00pm 7.3 1.9 2.2 70 2.3 SE 20 39 11 21 1020.8 1019.1 0.0
29/08:30pm 7.8 2.6 2.5 69 2.4 SE 19 33 10 18 1020.7 1019.0 0.0
29/08:00pm 8.7 3.2 1.8 62 3.1 SE 20 32 11 17 1020.6 1018.9 0.0
29/07:30pm 9.0 3.3 2.8 65 2.8 SE 22 35 12 19 1020.6 1018.9 0.0
29/07:00pm 9.3 2.1 2.9 64 2.9 SE 30 39 16 21 1020.3 1018.7 0.0
29/06:30pm 9.8 3.3 2.9 62 3.2 SE 26 33 14 18 1020.3 1018.7 0.0
29/06:00pm 10.2 4.1 3.0 61 3.3 SE 24 35 13 19 1020.5 1018.8 0.0
29/05:30pm 11.0 4.6 3.3 59 3.6 SE 26 35 14 19 1020.9 1019.2 0.0
29/05:00pm 11.4 5.4 3.4 58 3.8 SE 24 37 13 20 1021.2 1019.6 0.0
29/04:30pm 11.8 6.6 3.8 58 3.8 SE 20 32 11 17 1021.4 1019.7 0.0
29/04:00pm 11.6 6.3 3.1 56 4.0 SE 20 28 11 15 1021.6 1019.9 0.0
29/03:30pm 12.1 7.5 3.9 57 3.9 ESE 17 24 9 13 1021.7 1020.0 0.0
29/03:00pm 11.6 7.1 4.3 61 3.5 E 17 28 9 15 1021.8 1020.1 0.0
29/02:30pm 11.8 8.4 3.8 58 3.8 E 11 19 6 10 1022.2 1020.6 0.0
29/02:00pm 10.7 7.5 3.3 60 3.4 SE 9 17 5 9 1022.5 1020.8 0.0
29/01:30pm 11.7 8.8 4.4 61 3.5 ESE 9 19 5 10 1022.7 1021.0 0.0
29/01:00pm 11.7 8.6 3.5 57 3.9 ESE 9 17 5 9 1022.9 1021.3 0.0
29/12:30pm 10.7 6.7 3.0 59 3.6 E 13 24 7 13 1023.0 1021.4 0.0
29/12:00pm 11.7 7.2 4.0 59 3.7 ENE 17 28 9 15 1023.1 1021.5 0.0
29/11:30am 9.1 5.1 2.9 65 2.8 ESE 13 26 7 14 1023.5 1021.8 0.0
29/11:00am 8.9 4.6 3.1 67 2.6 ESE 15 28 8 15 1023.2 1021.6 0.0
29/10:30am 8.7 3.8 3.9 72 2.2 ESE 19 28 10 15 1023.2 1021.6 0.0
29/10:00am 8.1 2.8 3.0 70 2.3 ESE 20 32 11 17 1023.2 1021.6 0.0
29/09:30am 7.4 1.3 2.9 73 2.0 E 24 33 13 18 1023.0 1021.4 0.0
29/09:00am 6.4 0.7 3.0 79 1.5 ESE 22 30 12 16 1022.9 1021.3 0.0
29/08:30am 5.7 -0.8 2.7 81 1.3 ESE 26 33 14 18 1022.7 1021.0 0.0
29/08:00am 5.2 -0.9 2.7 84 1.1 ESE 24 33 13 18 1022.5 1020.8 0.0
29/07:30am 4.5 -1.7 2.4 86 0.9 ESE 24 35 13 19 1022.2 1020.6 0.0
29/07:00am 3.6 -3.0 1.8 88 0.8 ESE 26 32 14 17 1022.0 1020.4 0.0
29/06:30am 2.8 -4.6 1.6 92 0.5 ESE 30 37 16 20 1021.8 1020.1 0.0
29/06:00am 2.9 -3.8 1.4 90 0.6 ESE 26 33 14 18 1021.8 1020.1 0.0
29/05:30am 2.8 -5.2 1.5 91 0.5 ESE 33 41 18 22 1021.5 1019.8 0.0
29/05:00am 3.0 -4.5 1.4 89 0.7 ESE 30 43 16 23 1021.4 1019.7 0.0
29/04:30am 3.0 -4.1 1.2 88 0.7 ESE 28 37 15 20 1021.5 1019.8 0.0
29/04:00am 3.3 -5.2 0.9 84 1.0 ESE 35 43 19 23 1021.4 1019.7 0.0
29/03:30am 2.9 -4.3 1.0 87 0.8 ESE 28 35 15 19 1021.8 1020.1 0.0
29/03:00am 2.8 -4.3 1.2 89 0.7 ESE 28 39 15 21 1022.1 1020.5 0.0
29/02:30am 3.1 -4.1 0.8 85 0.9 ESE 28 43 15 23 1022.2 1020.6 0.0
29/02:00am 3.3 -3.9 0.5 82 1.1 ESE 28 39 15 21 1022.6 1020.9 0.0
29/01:30am 3.4 -2.3 0.5 81 1.2 ESE 20 30 11 16 1022.8 1021.2 0.0
29/01:00am 3.9 -1.9 0.2 77 1.5 ESE 20 32 11 17 1022.8 1021.2 0.0
29/12:30am 4.1 -1.0 0.6 78 1.4 ESE 17 30 9 16 1023.0 1021.4 0.0
29/12:00am 4.8 -0.6 1.1 77 1.6 ESE 19 33 10 18 1023.1 1021.5 0.0
 
Date/Time
EDT
Temp
°C
App
Temp
°C
Dew
Point
Rel
Hum
%
Delta-T
°C
Wind Press
QNH
hPa
Press
MSL
hPa
Rain
since 9 am
mm
Dir
 
Spd
km/h
Gust
km/h
Spd
kts
Gust
kts
28/11:30pm 5.0 -0.6 1.5 78 1.5 E 20 28 11 15 1023.1 1021.5 0.0
28/11:00pm 5.4 -1.2 2.1 79 1.4 E 26 35 14 19 1023.1 1021.5 0.0
28/10:30pm 6.0 -0.6 2.3 77 1.6 E 26 32 14 17 1023.1 1021.5 0.0
28/10:00pm 6.7 0.6 2.8 76 1.7 E 24 30 13 16 1023.2 1021.6 0.0
28/09:30pm 7.3 1.3 3.4 76 1.8 ESE 24 28 13 15 1023.0 1021.4 0.0
28/09:00pm 8.3 3.2 3.2 70 2.3 ESE 19 26 10 14 1022.9 1021.3 0.0
28/08:30pm 9.4 4.1 3.2 65 2.9 E 20 28 11 15 1022.8 1021.2 0.0
28/08:00pm 10.3 5.6 3.1 61 3.3 SE 17 24 9 13 1022.6 1020.9 0.0
28/07:30pm 11.0 5.9 3.1 58 3.7 SE 19 26 10 14 1022.5 1020.8 0.0
28/07:00pm 12.1 7.5 3.9 57 3.9 SSE 17 24 9 13 1022.5 1020.8 0.0
28/06:30pm 12.7 8.0 3.4 53 4.4 SE 17 26 9 14 1022.2 1020.6 0.0
28/06:00pm 13.0 8.3 3.1 51 4.7 SSE 17 28 9 15 1022.1 1020.5 0.0
28/05:30pm 13.3 8.1 3.4 51 4.7 SSE 20 32 11 17 1022.1 1020.5 0.0
28/05:00pm 13.7 8.5 3.5 50 4.9 SE 20 28 11 15 1022.2 1020.6 0.0
28/04:30pm 13.6 8.5 3.1 49 5.0 SE 19 28 10 15 1022.1 1020.5 0.0
28/04:00pm 14.1 9.5 3.8 50 5.0 SSE 17 24 9 13 1022.2 1020.6 0.0
28/03:30pm 13.6 9.5 2.5 47 5.2 SE 13 20 7 11 1022.5 1020.8 0.0
28/03:00pm 13.6 9.8 3.9 52 4.7 SSE 13 24 7 13 1022.6 1020.9 0.0
28/02:30pm 13.8 9.8 4.9 55 4.4 SE 15 24 8 13 1022.7 1021.0 0.0
28/02:00pm 13.7 10.6 5.6 58 4.1 ESE 11 20 6 11 1022.8 1021.2 0.0
28/01:30pm 11.9 7.9 2.9 54 4.2 SE 13 22 7 12 1022.9 1021.3 0.0
28/01:00pm 11.8 7.7 2.3 52 4.4 SE 13 22 7 12 1023.0 1021.4 0.0
28/12:30pm 12.2 8.4 3.7 56 4.1 SE 13 20 7 11 1023.0 1021.4 0.0
28/12:00pm 11.4 7.9 3.7 59 3.6 SSE 11 20 6 11 1022.9 1021.3 0.0
28/11:30am 10.6 7.3 4.7 67 2.8 SSE 11 17 6 9 1022.9 1021.3 0.0
28/11:00am 9.6 6.8 5.0 73 2.2 SE 9 17 5 9 1022.7 1021.0 0.0
28/10:30am 9.2 6.1 5.4 77 1.8 SE 11 17 6 9 1022.7 1021.0 0.0
28/10:00am 8.3 4.2 2.5 67 2.6 S 13 20 7 11 1022.7 1021.0 0.0
28/09:30am 7.8 4.0 3.7 75 1.9 S 13 19 7 10 1022.5 1020.8 0.0
28/09:00am 7.1 2.9 3.9 80 1.5 S 15 22 8 12 1022.2 1020.6 0.0
28/08:30am 6.2 0.7 4.2 87 0.9 S 22 26 12 14 1021.8 1020.1 0.0
28/08:00am 5.9 0.0 3.9 87 0.9 SSW 24 28 13 15 1021.5 1019.8 0.0
28/07:30am 5.8 0.6 3.8 87 0.9 SSW 20 24 11 13 1021.2 1019.6 0.0
28/07:00am 5.4 0.2 3.4 87 0.9 SSW 20 22 11 12 1020.8 1019.1 0.0
28/06:30am 5.0 -0.3 2.9 86 0.9 SSW 20 24 11 13 1020.6 1018.9 0.0
28/06:00am 5.2 0.0 3.4 88 0.8 SW 20 22 11 12 1020.3 1018.7 0.0
28/05:30am 5.2 0.2 3.4 88 0.8 SSW 19 19 10 10 1020.2 1018.5 0.0
28/05:00am 5.2 1.6 3.2 87 0.9 SSW 11 15 6 8 1020.1 1018.4 0.0
28/04:30am 5.6 2.4 3.1 84 1.1 S 9 9 5 5 1020.2 1018.5 0.0
28/04:00am 5.4 2.6 3.4 87 0.9 SSE 7 7 4 4 1020.2 1018.5 0.0
28/03:30am 5.3 2.6 3.8 90 0.7 ESE 7 13 4 7 1020.2 1018.5 0.0
28/03:00am 5.4 2.4 3.9 90 0.7 E 9 15 5 8 1020.5 1018.8 0.0
28/02:30am 5.1 1.0 4.4 95 0.3 E 15 19 8 10 1020.5 1018.8 0.0
28/02:00am 4.8 0.0 4.5 98 0.1 E 19 22 10 12 1020.5 1018.8 0.0
28/01:30am 5.0 0.0 4.7 98 0.1 E 20 24 11 13 1020.5 1018.8 0.0
28/01:00am 4.9 -0.5 4.6 98 0.1 E 22 28 12 15 1020.2 1018.5 0.0
28/12:30am 5.0 -1.1 4.6 97 0.2 E 26 30 14 16 1020.2 1018.5 0.0
28/12:00am 5.0 0.0 4.6 97 0.2 ESE 20 26 11 14 1020.1 1018.4 0.0
 
Date/Time
EDT
Temp
°C
App
Temp
°C
Dew
Point
Rel
Hum
%
Delta-T
°C
Wind Press
QNH
hPa
Press
MSL
hPa
Rain
since 9 am
mm
Dir
 
Spd
km/h
Gust
km/h
Spd
kts
Gust
kts
27/11:30pm 4.9 0.1 4.8 99 0.0 SE 19 24 10 13 1020.1 1018.4 0.0
27/11:00pm 5.0 -0.7 4.9 99 0.0 SSE 24 32 13 17 1019.9 1018.2 0.0
27/10:30pm 5.1 -0.6 5.0 99 0.0 SSE 24 30 13 16 1019.8 1018.1 0.0
27/10:00pm 5.0 0.1 4.9 99 0.0 S 20 26 11 14 1019.7 1018.0 0.0
27/09:30pm 5.2 -1.6 5.1 99 0.0 S 30 32 16 17 1019.3 1017.6 0.0
27/09:00pm 5.4 -1.4 5.3 99 0.0 S 30 35 16 19 1019.1 1017.4 0.0
27/08:30pm 5.6 -2.4 5.5 99 0.0 S 37 43 20 23 1018.6 1016.8 0.0

Other Formats:

Comma delimited format used in spreadsheet applications
http://www.bom.gov.au/fwo/IDT60801/IDT60801.95952.axf

JavaScript Object Notation format (JSON) in row-major order
http://www.bom.gov.au/fwo/IDT60801/IDT60801.95952.json